Time;durP1;ratioP1;P1;durP2;ratioP2;P2;SDS_P1;SDS_P2;PMS_P1;PMS_P2;Temp;Humidity;BMP_temperature;BMP_pressure;BME280_temperature;BME280_humidity;BME280_pressure;Samples;Min_cycle;Max_cycle;Signal;HPM_P1;HPM_P2
2024/01/05 00:01:08;;;;;;;14.57;3.42;;;7.80;99.90;;;;;;4948034;28;20963;-71
2024/01/05 00:03:34;;;;;;;18.48;3.63;;;7.80;99.90;;;;;;4947446;28;20031;-71
2024/01/05 00:06:00;;;;;;;12.15;3.20;;;7.80;99.90;;;;;;4948571;28;20034;-71
2024/01/05 00:08:25;;;;;;;17.92;3.53;;;7.80;99.90;;;;;;4945579;29;20081;-72
2024/01/05 00:10:51;;;;;;;16.05;3.38;;;7.80;99.90;;;;;;4946853;28;20035;-71
2024/01/05 00:13:16;;;;;;;18.48;3.95;;;7.80;99.90;;;;;;4949390;28;20110;-71
2024/01/05 00:15:42;;;;;;;11.00;2.80;;;7.80;99.90;;;;;;4944737;28;20034;-72
2024/01/05 00:18:08;;;;;;;14.15;3.92;;;7.90;99.90;;;;;;4951194;28;20035;-72
2024/01/05 00:20:34;;;;;;;20.25;3.22;;;7.80;99.90;;;;;;4940802;28;20145;-72
2024/01/05 00:22:59;;;;;;;25.13;3.55;;;7.90;99.90;;;;;;4932969;28;20036;-70
2024/01/05 00:25:25;;;;;;;13.65;2.72;;;7.90;99.90;;;;;;4948330;28;20023;-71
2024/01/05 00:27:54;;;;;;;13.50;2.83;;;7.90;99.90;;;;;;4948006;28;20035;-70
2024/01/05 00:30:20;;;;;;;16.58;2.67;;;7.90;99.90;;;;;;4948125;29;20050;-71
2024/01/05 00:32:45;;;;;;;12.68;3.22;;;7.90;99.90;;;;;;4949326;28;20488;-72
2024/01/05 00:35:11;;;;;;;12.77;3.00;;;7.90;99.90;;;;;;4938733;28;20035;-72
2024/01/05 00:37:37;;;;;;;14.63;3.30;;;7.90;99.90;;;;;;4948839;28;20377;-74
2024/01/05 00:40:03;;;;;;;10.52;2.70;;;7.90;99.90;;;;;;4950875;28;20039;-71
2024/01/05 00:42:29;;;;;;;8.32;2.92;;;7.90;99.90;;;;;;4958891;28;20849;-71
2024/01/05 00:44:54;;;;;;;22.73;3.60;;;7.90;99.90;;;;;;4959779;28;20117;-71
2024/01/05 00:47:20;;;;;;;12.07;3.35;;;8.00;99.90;;;;;;4960808;28;20036;-71
2024/01/05 00:49:45;;;;;;;13.65;3.78;;;8.00;99.90;;;;;;4939074;28;20039;-71
2024/01/05 00:52:12;;;;;;;13.15;2.30;;;8.00;99.90;;;;;;4946106;28;20126;-71
2024/01/05 00:54:38;;;;;;;26.05;3.55;;;8.00;99.90;;;;;;4948803;28;20023;-72
2024/01/05 00:57:04;;;;;;;15.55;2.65;;;8.00;99.90;;;;;;4956037;28;20090;-71
2024/01/05 00:59:29;;;;;;;17.20;3.63;;;8.00;99.90;;;;;;4947844;28;20043;-72
2024/01/05 01:01:55;;;;;;;18.83;4.05;;;8.00;99.90;;;;;;4950468;28;20035;-71
2024/01/05 01:04:20;;;;;;;10.10;2.50;;;8.00;99.90;;;;;;4954333;28;20395;-72
2024/01/05 01:06:46;;;;;;;13.65;2.30;;;8.00;99.90;;;;;;4949671;28;20122;-72
2024/01/05 01:09:12;;;;;;;13.57;3.55;;;8.00;99.90;;;;;;4952838;28;20085;-72
2024/01/05 01:11:37;;;;;;;12.57;3.50;;;8.00;99.90;;;;;;4962526;28;20038;-72
2024/01/05 01:14:03;;;;;;;7.22;2.53;;;8.00;99.90;;;;;;4954802;28;20028;-71
2024/01/05 01:16:28;;;;;;;12.48;3.13;;;8.00;99.90;;;;;;4964404;28;20142;-71
2024/01/05 01:18:54;;;;;;;8.27;2.40;;;8.00;99.90;;;;;;4954163;28;20058;-73
2024/01/05 01:21:20;;;;;;;15.15;2.78;;;8.00;99.90;;;;;;4957089;28;20118;-72
2024/01/05 01:23:45;;;;;;;7.32;2.97;;;7.90;99.90;;;;;;4961116;28;20031;-72
2024/01/05 01:26:11;;;;;;;12.55;2.80;;;7.90;99.90;;;;;;4958930;28;20027;-71
2024/01/05 01:28:36;;;;;;;14.52;3.95;;;7.90;99.90;;;;;;4952524;28;20118;-72
2024/01/05 01:31:02;;;;;;;16.33;3.03;;;7.90;99.90;;;;;;4949633;28;20570;-72
2024/01/05 01:33:27;;;;;;;19.27;3.33;;;7.90;99.90;;;;;;4951684;28;20456;-71
2024/01/05 01:35:53;;;;;;;12.00;2.55;;;7.90;99.90;;;;;;4960100;28;20046;-73
2024/01/05 01:38:18;;;;;;;12.85;2.08;;;7.90;99.90;;;;;;4958341;28;20491;-70
2024/01/05 01:40:48;;;;;;;15.70;3.05;;;7.90;99.90;;;;;;4961756;28;20058;-70
2024/01/05 01:43:22;;;;;;;9.25;2.75;;;7.90;99.90;;;;;;4958193;28;20074;-72
2024/01/05 01:45:48;;;;;;;19.20;4.20;;;7.90;99.90;;;;;;4952589;28;20042;-71
2024/01/05 01:48:17;;;;;;;16.30;2.47;;;7.90;99.90;;;;;;4955801;28;20031;-71
2024/01/05 01:50:43;;;;;;;16.00;2.45;;;7.90;99.90;;;;;;4951939;28;20111;-71
2024/01/05 01:53:09;;;;;;;18.63;2.67;;;8.00;99.90;;;;;;4954969;28;20114;-72
2024/01/05 01:55:35;;;;;;;16.52;2.60;;;8.00;99.90;;;;;;4959438;28;20046;-71
2024/01/05 01:58:01;;;;;;;19.08;3.22;;;8.00;99.90;;;;;;4965195;28;20039;-71
2024/01/05 02:00:27;;;;;;;14.02;2.17;;;8.00;99.90;;;;;;4962087;28;20563;-71
2024/01/05 02:02:53;;;;;;;10.98;2.28;;;8.00;99.90;;;;;;4959176;28;20093;-71
2024/01/05 02:05:19;;;;;;;9.75;1.88;;;8.00;99.90;;;;;;4952005;28;20066;-73
2024/01/05 02:07:45;;;;;;;11.20;2.38;;;8.10;99.90;;;;;;4952503;28;20032;-71
2024/01/05 02:10:11;;;;;;;14.02;2.22;;;8.10;99.90;;;;;;4955761;28;20031;-71
2024/01/05 02:12:37;;;;;;;11.70;1.50;;;8.10;99.90;;;;;;4958051;28;20510;-75
2024/01/05 02:15:02;;;;;;;17.38;3.13;;;8.10;99.90;;;;;;4953623;28;20062;-72
2024/01/05 02:17:33;;;;;;;12.55;1.92;;;8.10;99.90;;;;;;4944587;28;20027;-73
2024/01/05 02:19:59;;;;;;;15.70;1.80;;;8.10;99.90;;;;;;4949674;28;20039;-72
2024/01/05 02:22:29;;;;;;;11.07;1.70;;;8.10;99.90;;;;;;4955041;28;20059;-71
2024/01/05 02:24:57;;;;;;;16.57;2.03;;;8.20;99.90;;;;;;4959671;28;20774;-72
2024/01/05 02:27:22;;;;;;;11.18;1.83;;;8.20;99.90;;;;;;4953649;28;20350;-71
2024/01/05 02:29:48;;;;;;;14.25;2.65;;;8.30;99.90;;;;;;4957931;28;20042;-71
2024/01/05 02:32:15;;;;;;;8.07;1.50;;;8.20;99.90;;;;;;4943112;28;20146;-71
2024/01/05 02:34:40;;;;;;;22.10;2.65;;;8.30;99.90;;;;;;4956371;28;20139;-71
2024/01/05 02:37:06;;;;;;;10.70;2.05;;;8.20;99.90;;;;;;4944362;28;20122;-72
2024/01/05 02:39:31;;;;;;;14.10;1.50;;;8.20;99.90;;;;;;4953973;28;20047;-75
2024/01/05 02:41:57;;;;;;;14.23;1.75;;;8.20;99.90;;;;;;4948086;28;20424;-72
2024/01/05 02:44:23;;;;;;;14.25;2.90;;;8.20;99.90;;;;;;4951790;28;20039;-72
2024/01/05 02:46:48;;;;;;;10.93;1.65;;;8.30;99.90;;;;;;4951107;28;20035;-72
2024/01/05 02:49:14;;;;;;;15.10;2.25;;;8.30;99.90;;;;;;4951676;28;20114;-73
2024/01/05 02:51:39;;;;;;;10.70;1.30;;;8.30;99.90;;;;;;4952734;28;20420;-74
2024/01/05 02:54:05;;;;;;;10.18;1.60;;;8.30;99.90;;;;;;4946012;28;20044;-72
2024/01/05 02:56:33;;;;;;;9.18;1.50;;;8.40;99.90;;;;;;4942583;28;20034;-72
2024/01/05 02:58:59;;;;;;;10.88;1.38;;;8.40;99.90;;;;;;4951410;28;20047;-72
2024/01/05 03:01:25;;;;;;;8.00;1.40;;;8.40;99.90;;;;;;4949369;28;20399;-72
2024/01/05 03:03:50;;;;;;;8.80;1.23;;;8.40;99.90;;;;;;4951412;28;20063;-74
2024/01/05 03:06:16;;;;;;;7.32;1.30;;;8.40;99.90;;;;;;4956627;28;20035;-72
2024/01/05 03:08:43;;;;;;;7.25;1.20;;;8.50;99.90;;;;;;4948651;28;20507;-71
2024/01/05 03:11:09;;;;;;;7.03;1.13;;;8.50;99.90;;;;;;4955328;28;20095;-73
2024/01/05 03:13:35;;;;;;;10.00;1.70;;;8.60;99.90;;;;;;4956623;28;20039;-72
2024/01/05 03:16:01;;;;;;;9.63;1.73;;;8.60;99.90;;;;;;4949967;28;20601;-71
2024/01/05 03:18:26;;;;;;;10.35;1.35;;;8.50;99.90;;;;;;4958092;28;20035;-71
2024/01/05 03:20:52;;;;;;;9.82;1.00;;;8.60;99.90;;;;;;4963145;28;20793;-72
2024/01/05 03:23:18;;;;;;;3.70;0.70;;;8.60;99.90;;;;;;4970266;28;20038;-71
2024/01/05 03:25:44;;;;;;;8.70;1.40;;;8.60;99.90;;;;;;4968397;28;20403;-71
2024/01/05 03:28:10;;;;;;;11.57;1.33;;;8.60;99.90;;;;;;4967810;28;20027;-72
2024/01/05 03:30:37;;;;;;;13.18;1.20;;;8.60;99.90;;;;;;4968240;28;20479;-71
2024/01/05 03:33:03;;;;;;;5.07;1.00;;;8.60;99.90;;;;;;4961340;28;20039;-71
2024/01/05 03:35:29;;;;;;;12.02;1.70;;;8.60;99.90;;;;;;4950040;28;20043;-72
2024/01/05 03:37:55;;;;;;;5.22;1.00;;;8.60;99.90;;;;;;4937496;28;20031;-72
2024/01/05 03:40:21;;;;;;;7.63;0.70;;;8.70;99.90;;;;;;4943612;28;20031;-71
2024/01/05 03:42:47;;;;;;;12.70;0.90;;;8.70;99.90;;;;;;4949061;28;20551;-73
2024/01/05 03:45:12;;;;;;;7.00;1.35;;;8.70;99.90;;;;;;4949420;28;20788;-71
2024/01/05 03:47:38;;;;;;;7.78;1.20;;;8.70;99.90;;;;;;4941656;28;20123;-71
2024/01/05 03:50:04;;;;;;;8.00;1.45;;;8.70;99.90;;;;;;4938804;28;20058;-72
2024/01/05 03:52:30;;;;;;;5.95;1.45;;;8.70;99.90;;;;;;4944150;28;20075;-72
2024/01/05 03:54:56;;;;;;;6.30;1.05;;;8.70;99.90;;;;;;4947984;28;20089;-73
2024/01/05 03:57:21;;;;;;;6.72;0.90;;;8.60;99.90;;;;;;4945244;28;20559;-73
2024/01/05 03:59:47;;;;;;;6.25;0.80;;;8.60;99.90;;;;;;4944428;28;20039;-71
2024/01/05 04:02:13;;;;;;;13.23;2.40;;;8.60;99.90;;;;;;4948268;28;20395;-72
2024/01/05 04:04:42;;;;;;;9.25;1.55;;;8.60;99.90;;;;;;4948489;28;20040;-73
2024/01/05 04:07:07;;;;;;;3.50;0.82;;;8.50;99.90;;;;;;4944694;28;20031;-71
2024/01/05 04:09:33;;;;;;;9.50;1.88;;;8.50;99.90;;;;;;4943118;28;20035;-72
2024/01/05 04:11:59;;;;;;;8.80;1.80;;;8.60;99.90;;;;;;4945037;28;20586;-72
2024/01/05 04:14:25;;;;;;;5.20;1.48;;;8.50;99.90;;;;;;4939083;28;20050;-73
2024/01/05 04:16:51;;;;;;;10.10;1.63;;;8.50;99.90;;;;;;4961926;28;20710;-73
2024/01/05 04:19:16;;;;;;;6.90;0.75;;;8.60;99.90;;;;;;4944917;28;20123;-72
2024/01/05 04:21:42;;;;;;;10.65;1.10;;;8.60;99.90;;;;;;4948140;28;20138;-72
2024/01/05 04:24:08;;;;;;;10.27;2.45;;;8.60;99.90;;;;;;4965279;28;20034;-72
2024/01/05 04:26:34;;;;;;;7.65;1.15;;;8.60;99.90;;;;;;4956021;28;20035;-71
2024/01/05 04:29:00;;;;;;;7.82;1.15;;;8.50;99.90;;;;;;4944931;28;20070;-71
2024/01/05 04:31:26;;;;;;;4.38;0.70;;;8.60;99.90;;;;;;4948350;28;20047;-71
2024/01/05 04:33:53;;;;;;;6.63;0.90;;;8.60;99.90;;;;;;4946767;28;20299;-73
2024/01/05 04:36:19;;;;;;;5.55;1.23;;;8.60;99.90;;;;;;4947616;29;20058;-71
2024/01/05 04:38:45;;;;;;;8.52;1.42;;;8.60;99.90;;;;;;4946596;28;20047;-71
2024/01/05 04:41:15;;;;;;;12.25;1.33;;;8.60;99.90;;;;;;4946882;28;20518;-74
2024/01/05 04:43:40;;;;;;;7.85;1.55;;;8.60;99.90;;;;;;4946867;28;20028;-72
2024/01/05 04:46:07;;;;;;;8.68;1.27;;;8.70;99.90;;;;;;4944790;28;20097;-73
2024/01/05 04:48:33;;;;;;;5.78;0.55;;;8.70;99.90;;;;;;4944271;28;20448;-73
2024/01/05 04:51:00;;;;;;;5.00;0.93;;;8.70;99.90;;;;;;4950498;28;20035;-72
2024/01/05 04:53:25;;;;;;;2.40;0.60;;;8.70;99.90;;;;;;4951654;28;20030;-73
2024/01/05 04:55:51;;;;;;;7.93;1.25;;;8.70;99.90;;;;;;4954255;28;20086;-72
2024/01/05 04:58:16;;;;;;;2.97;0.65;;;8.70;99.90;;;;;;4959093;28;20035;-72
2024/01/05 05:00:42;;;;;;;5.15;0.70;;;8.70;99.90;;;;;;4950843;28;20062;-73
2024/01/05 05:03:09;;;;;;;6.20;0.80;;;8.70;99.90;;;;;;4951957;28;20042;-72
2024/01/05 05:05:35;;;;;;;3.15;0.60;;;8.70;99.90;;;;;;4959816;28;20027;-73
2024/01/05 05:08:01;;;;;;;9.50;0.70;;;8.70;99.90;;;;;;4955370;28;20027;-75
2024/01/05 05:10:27;;;;;;;11.13;1.02;;;8.60;99.90;;;;;;4951127;28;20102;-73
2024/01/05 05:12:53;;;;;;;5.80;0.60;;;8.70;99.90;;;;;;4945775;28;20499;-72
2024/01/05 05:15:18;;;;;;;12.40;2.70;;;8.50;99.90;;;;;;4947011;28;20031;-71
2024/01/05 05:17:44;;;;;;;5.55;0.70;;;8.50;99.90;;;;;;4946597;28;20085;-72
2024/01/05 05:20:10;;;;;;;19.27;2.65;;;8.50;99.90;;;;;;4945292;28;20047;-73
2024/01/05 05:22:36;;;;;;;6.28;0.55;;;8.50;99.90;;;;;;4946445;28;20027;-72
2024/01/05 05:25:02;;;;;;;6.00;1.33;;;8.50;99.90;;;;;;4933594;28;20042;-72
2024/01/05 05:27:28;;;;;;;4.15;0.50;;;8.50;99.90;;;;;;4927537;28;20028;-72
2024/01/05 05:29:53;;;;;;;4.03;1.48;;;8.50;99.90;;;;;;4935686;28;20054;-71
2024/01/05 05:32:19;;;;;;;2.15;0.60;;;8.40;99.90;;;;;;4948239;28;20054;-72
2024/01/05 05:34:44;;;;;;;2.92;0.57;;;8.40;99.90;;;;;;4938985;28;20127;-72
2024/01/05 05:37:10;;;;;;;11.02;1.20;;;8.50;99.90;;;;;;4940570;28;20047;-72
2024/01/05 05:39:36;;;;;;;4.53;0.50;;;8.40;99.90;;;;;;4961580;28;20026;-73
2024/01/05 05:42:02;;;;;;;10.52;1.88;;;8.40;99.90;;;;;;4946945;28;20067;-71
2024/01/05 05:44:28;;;;;;;8.07;0.60;;;8.40;99.90;;;;;;4947037;28;20039;-72
2024/01/05 05:46:54;;;;;;;5.90;0.75;;;8.40;99.90;;;;;;4945249;28;20042;-71
2024/01/05 05:49:20;;;;;;;4.72;0.60;;;8.40;99.90;;;;;;4933500;28;20031;-72
2024/01/05 05:51:46;;;;;;;6.93;1.00;;;8.40;99.90;;;;;;4966018;28;20039;-72
2024/01/05 05:54:11;;;;;;;5.35;1.30;;;8.50;99.90;;;;;;4966832;28;21140;-72
2024/01/05 05:56:38;;;;;;;6.53;0.80;;;8.40;99.90;;;;;;4966408;28;20066;-73
2024/01/05 05:59:04;;;;;;;7.53;0.40;;;8.40;99.90;;;;;;4946307;28;20035;-72
2024/01/05 06:01:30;;;;;;;8.45;0.68;;;8.40;99.90;;;;;;4945749;28;20507;-71
2024/01/05 06:03:55;;;;;;;10.82;1.65;;;8.40;99.90;;;;;;4949029;28;20043;-72
2024/01/05 06:06:22;;;;;;;7.28;0.90;;;8.40;99.90;;;;;;4949698;28;20027;-72
2024/01/05 06:08:48;;;;;;;3.58;0.90;;;8.40;99.90;;;;;;4946720;28;20555;-72
2024/01/05 06:11:18;;;;;;;9.50;0.60;;;8.30;99.90;;;;;;4949301;28;20365;-72
2024/01/05 06:13:47;;;;;;;6.75;1.15;;;8.30;99.90;;;;;;4948795;28;20066;-72
2024/01/05 06:16:13;;;;;;;2.67;0.63;;;8.30;99.90;;;;;;4946013;29;20392;-73
2024/01/05 06:18:39;;;;;;;10.00;2.20;;;8.20;99.90;;;;;;4947794;28;20130;-73
2024/01/05 06:21:05;;;;;;;3.20;0.80;;;8.20;99.90;;;;;;4950107;28;20039;-72
2024/01/05 06:23:32;;;;;;;5.70;0.47;;;8.20;99.90;;;;;;4948572;28;20035;-71
2024/01/05 06:25:58;;;;;;;1.50;0.20;;;8.10;99.90;;;;;;4960949;28;20417;-72
2024/01/05 06:28:23;;;;;;;1.75;0.40;;;8.10;99.90;;;;;;4953753;28;20042;-72
2024/01/05 06:30:49;;;;;;;2.42;0.22;;;8.10;99.90;;;;;;4948610;28;20050;-72
2024/01/05 06:33:15;;;;;;;4.95;0.63;;;8.00;99.90;;;;;;4949228;28;20420;-71
2024/01/05 06:35:40;;;;;;;0.68;0.20;;;7.90;99.90;;;;;;4947004;28;20035;-71
2024/01/05 06:38:06;;;;;;;4.00;0.20;;;7.80;99.90;;;;;;4936477;28;20134;-71
2024/01/05 06:40:31;;;;;;;0.95;0.10;;;7.80;99.90;;;;;;4935486;28;20111;-71
2024/01/05 06:42:57;;;;;;;1.08;0.15;;;7.70;99.90;;;;;;4940826;28;20399;-72
2024/01/05 06:45:23;;;;;;;1.35;0.35;;;7.70;99.90;;;;;;4967030;28;20676;-70
2024/01/05 06:47:49;;;;;;;1.42;0.47;;;7.70;99.90;;;;;;4958376;28;20054;-72
2024/01/05 06:50:15;;;;;;;1.67;0.10;;;7.60;99.90;;;;;;4954440;28;20059;-72
2024/01/05 06:52:41;;;;;;;2.08;0.10;;;7.60;99.90;;;;;;4943575;28;20039;-72
2024/01/05 06:55:07;;;;;;;2.75;0.20;;;7.60;99.90;;;;;;4947308;28;20043;-72
2024/01/05 06:57:35;;;;;;;1.17;0.10;;;7.70;99.90;;;;;;4952289;28;20412;-72
2024/01/05 07:00:05;;;;;;;0.47;0.10;;;7.70;99.90;;;;;;4948670;28;20047;-70
2024/01/05 07:02:31;;;;;;;0.35;0.17;;;7.70;99.90;;;;;;4944136;29;20114;-71
2024/01/05 07:04:57;;;;;;;0.28;0.22;;;7.70;99.90;;;;;;4949583;28;20043;-72
2024/01/05 07:07:22;;;;;;;1.17;0.10;;;7.70;99.90;;;;;;4954828;28;20041;-72
2024/01/05 07:09:48;;;;;;;0.40;0.00;;;7.60;99.90;;;;;;4953543;28;20931;-73
2024/01/05 07:12:14;;;;;;;1.30;0.10;;;7.60;99.90;;;;;;4955495;28;20034;-72
2024/01/05 07:14:39;;;;;;;1.77;0.05;;;7.40;99.90;;;;;;4954729;28;20145;-72
2024/01/05 07:17:05;;;;;;;0.25;0.22;;;7.40;99.90;;;;;;4967942;28;20563;-72
2024/01/05 07:19:30;;;;;;;1.75;0.00;;;7.30;99.90;;;;;;4955956;28;20027;-71
2024/01/05 07:21:56;;;;;;;1.55;0.00;;;7.30;99.90;;;;;;4943355;28;20404;-71
2024/01/05 07:24:22;;;;;;;0.43;0.10;;;7.20;99.90;;;;;;4948384;28;20047;-72
2024/01/05 07:26:48;;;;;;;0.60;0.10;;;7.20;99.90;;;;;;4948041;28;20035;-72
2024/01/05 07:29:14;;;;;;;1.55;0.10;;;7.30;99.90;;;;;;4949599;28;20039;-72
2024/01/05 07:31:39;;;;;;;1.30;0.10;;;7.20;99.90;;;;;;4955602;28;20407;-73
2024/01/05 07:34:05;;;;;;;0.10;0.00;;;7.20;99.90;;;;;;4958124;28;20038;-73
2024/01/05 07:36:31;;;;;;;1.10;0.08;;;7.20;99.90;;;;;;4948458;28;20396;-71
2024/01/05 07:38:59;;;;;;;0.28;0.00;;;7.30;99.90;;;;;;4942786;28;20046;-72
2024/01/05 07:41:28;;;;;;;2.50;0.10;;;7.20;99.90;;;;;;4947463;29;20333;-72
2024/01/05 07:43:54;;;;;;;0.15;0.00;;;7.20;99.90;;;;;;4931303;28;20036;-73
2024/01/05 07:46:22;;;;;;;1.15;0.10;;;7.20;99.90;;;;;;4945830;28;20412;-73
2024/01/05 07:48:47;;;;;;;0.65;0.08;;;7.20;99.90;;;;;;4947805;28;20138;-72
2024/01/05 07:51:13;;;;;;;2.42;0.10;;;7.10;99.90;;;;;;4942118;28;20162;-72
2024/01/05 07:53:39;;;;;;;3.25;0.28;;;7.10;99.90;;;;;;4948341;28;20039;-72
2024/01/05 07:56:05;;;;;;;0.55;0.10;;;7.10;99.90;;;;;;4941348;28;20060;-72
2024/01/05 07:58:31;;;;;;;0.55;0.10;;;7.10;99.90;;;;;;4948012;28;20035;-73
2024/01/05 08:00:57;;;;;;;2.65;0.20;;;7.00;99.90;;;;;;4947129;28;20043;-72
2024/01/05 08:03:23;;;;;;;0.25;0.10;;;7.00;99.90;;;;;;4947781;28;20523;-71
2024/01/05 08:05:48;;;;;;;1.15;0.10;;;7.00;99.90;;;;;;4949564;28;20043;-72
2024/01/05 08:08:14;;;;;;;2.05;0.35;;;7.00;99.90;;;;;;4949506;28;20109;-74
2024/01/05 08:10:40;;;;;;;1.02;0.38;;;7.00;99.90;;;;;;4954502;28;20023;-71
2024/01/05 08:13:06;;;;;;;5.35;0.15;;;7.00;99.90;;;;;;4949799;28;20067;-72
2024/01/05 08:15:32;;;;;;;0.60;0.15;;;6.90;99.90;;;;;;4947953;28;20031;-72
2024/01/05 08:17:58;;;;;;;1.27;0.20;;;6.90;99.90;;;;;;4950263;28;20045;-71
2024/01/05 08:20:24;;;;;;;0.00;0.00;;;6.90;99.90;;;;;;4949391;28;20031;-71
2024/01/05 08:22:50;;;;;;;2.53;0.88;;;6.90;99.90;;;;;;4946259;28;20118;-73
2024/01/05 08:25:15;;;;;;;0.88;0.20;;;7.00;99.90;;;;;;4946227;28;20081;-70
2024/01/05 08:27:42;;;;;;;2.90;0.30;;;6.90;99.90;;;;;;4967310;28;20431;-72
2024/01/05 08:30:11;;;;;;;1.70;0.20;;;6.80;99.90;;;;;;4958620;28;20047;-73
2024/01/05 08:32:37;;;;;;;0.47;0.10;;;6.80;99.90;;;;;;4947461;28;20376;-71
2024/01/05 08:35:06;;;;;;;1.52;0.52;;;6.80;99.90;;;;;;4947661;28;20047;-71
2024/01/05 08:37:32;;;;;;;2.05;0.20;;;6.90;99.90;;;;;;4949296;28;20039;-72
2024/01/05 08:39:58;;;;;;;0.47;0.30;;;6.80;99.90;;;;;;4941971;28;20537;-72
2024/01/05 08:42:23;;;;;;;0.28;0.10;;;6.80;99.90;;;;;;4947427;28;20031;-75
2024/01/05 08:44:50;;;;;;;1.27;0.40;;;6.80;99.90;;;;;;4953361;28;20078;-73
2024/01/05 08:47:16;;;;;;;1.73;0.40;;;6.80;99.90;;;;;;4950345;28;20031;-72
2024/01/05 08:49:42;;;;;;;5.80;0.20;;;6.80;99.90;;;;;;4949656;28;20155;-71
2024/01/05 08:52:08;;;;;;;1.92;0.40;;;6.80;99.90;;;;;;4945418;28;20877;-71
2024/01/05 08:54:33;;;;;;;1.15;0.50;;;6.80;99.90;;;;;;4958591;28;20039;-71
2024/01/05 08:56:59;;;;;;;1.05;0.30;;;6.80;99.90;;;;;;4949204;28;20051;-71
2024/01/05 08:59:25;;;;;;;0.70;0.30;;;6.80;99.90;;;;;;4957536;28;20055;-70
2024/01/05 09:01:50;;;;;;;2.55;0.65;;;6.80;99.90;;;;;;4945562;28;20122;-72
2024/01/05 09:04:16;;;;;;;1.05;0.65;;;6.80;99.90;;;;;;4944880;28;20062;-71
2024/01/05 09:06:42;;;;;;;2.83;0.63;;;6.80;99.90;;;;;;4949221;28;20403;-71
2024/01/05 09:09:10;;;;;;;1.63;0.85;;;6.80;99.90;;;;;;4946242;28;20043;-72
2024/01/05 09:11:39;;;;;;;2.47;1.00;;;6.80;99.90;;;;;;4949050;28;20027;-72
2024/01/05 09:14:04;;;;;;;3.08;0.90;;;6.80;99.90;;;;;;4946947;28;20381;-71
2024/01/05 09:16:30;;;;;;;3.08;0.98;;;6.80;99.90;;;;;;4950572;28;20046;-77
2024/01/05 09:18:55;;;;;;;2.10;0.95;;;6.80;99.90;;;;;;4957307;28;20094;-73
2024/01/05 09:21:21;;;;;;;4.78;0.90;;;6.80;99.90;;;;;;4944774;28;20737;-71
2024/01/05 09:23:46;;;;;;;2.75;0.88;;;6.70;99.90;;;;;;4945872;28;20039;-72
2024/01/05 09:26:15;;;;;;;1.80;1.27;;;6.80;99.90;;;;;;4952366;28;20103;-73
2024/01/05 09:28:42;;;;;;;3.17;1.17;;;6.80;99.90;;;;;;4944721;28;20450;-74
2024/01/05 09:31:08;;;;;;;1.75;0.95;;;6.70;99.90;;;;;;4952505;28;20487;-72
2024/01/05 09:33:34;;;;;;;2.42;1.15;;;6.80;99.90;;;;;;4954165;28;20570;-74
2024/01/05 09:36:00;;;;;;;2.25;1.30;;;6.80;99.90;;;;;;4954969;28;20039;-73
2024/01/05 09:38:25;;;;;;;4.00;1.20;;;6.80;99.90;;;;;;4955240;28;20026;-73
2024/01/05 09:40:53;;;;;;;3.85;1.20;;;6.70;99.90;;;;;;4949757;28;20188;-72
2024/01/05 09:43:25;;;;;;;3.70;1.20;;;6.70;99.90;;;;;;4955992;28;20031;-72
2024/01/05 09:45:51;;;;;;;1.75;1.10;;;6.70;99.90;;;;;;4956241;28;20054;-73
2024/01/05 09:48:19;;;;;;;2.42;1.30;;;6.70;99.90;;;;;;4962714;28;20089;-73
2024/01/05 09:50:53;;;;;;;3.70;1.02;;;6.70;99.90;;;;;;4959557;28;20038;-72
2024/01/05 09:53:19;;;;;;;2.90;0.88;;;6.60;99.90;;;;;;4956649;28;20494;-73
2024/01/05 09:55:49;;;;;;;1.92;1.15;;;6.60;99.90;;;;;;4955142;28;20126;-72
2024/01/05 09:58:16;;;;;;;1.95;1.02;;;6.60;99.90;;;;;;4961322;28;20769;-73
2024/01/05 10:00:47;;;;;;;2.45;1.30;;;6.60;99.90;;;;;;4949197;28;20050;-73
2024/01/05 10:03:21;;;;;;;2.40;1.33;;;6.60;99.90;;;;;;4952501;28;20046;-72
2024/01/05 10:05:53;;;;;;;1.20;0.88;;;6.60;99.90;;;;;;4951240;28;20048;-73
2024/01/05 10:08:21;;;;;;;3.63;1.42;;;6.60;99.90;;;;;;4942496;28;20048;-73
2024/01/05 10:10:52;;;;;;;1.42;0.90;;;6.60;99.90;;;;;;4945464;28;20368;-73
2024/01/05 10:13:18;;;;;;;2.60;0.80;;;6.60;99.90;;;;;;4947032;28;20065;-73
2024/01/05 10:16:02;;;;;;;2.58;1.50;;;6.60;99.90;;;;;;4954177;28;20123;-72
2024/01/05 10:18:29;;;;;;;1.85;1.10;;;6.60;99.90;;;;;;4951946;28;20031;-73
2024/01/05 10:20:58;;;;;;;5.15;1.67;;;6.60;99.90;;;;;;4954690;28;20132;-73
2024/01/05 10:23:24;;;;;;;4.05;1.20;;;6.70;99.90;;;;;;4951295;28;20126;-73
2024/01/05 10:25:51;;;;;;;2.53;1.60;;;6.70;99.90;;;;;;4955457;28;20503;-70
2024/01/05 10:28:32;;;;;;;2.85;1.60;;;6.70;99.90;;;;;;4956994;28;20081;-74
2024/01/05 10:31:15;;;;;;;1.98;1.38;;;6.70;99.90;;;;;;4951931;28;20400;-73
2024/01/05 10:33:51;;;;;;;2.85;1.65;;;6.70;99.90;;;;;;4947200;28;20023;-74
2024/01/05 10:36:21;;;;;;;6.85;2.05;;;6.70;99.90;;;;;;4955434;28;20158;-74
2024/01/05 10:38:47;;;;;;;2.45;1.45;;;6.80;99.90;;;;;;4959161;28;20035;-74
2024/01/05 10:41:15;;;;;;;3.00;1.63;;;6.80;99.90;;;;;;4948321;28;20039;-72
2024/01/05 10:43:42;;;;;;;3.25;1.58;;;6.80;99.90;;;;;;4944673;28;20035;-74
2024/01/05 10:46:15;;;;;;;3.03;2.00;;;6.70;99.90;;;;;;4948465;28;20117;-74
2024/01/05 10:48:42;;;;;;;7.85;2.45;;;6.80;99.90;;;;;;4950682;28;20098;-74
2024/01/05 10:51:11;;;;;;;3.03;1.80;;;6.80;99.90;;;;;;4945278;28;20039;-74
2024/01/05 10:53:37;;;;;;;3.22;2.03;;;6.80;99.90;;;;;;4960700;28;20861;-73
2024/01/05 10:56:03;;;;;;;2.67;1.80;;;6.80;99.90;;;;;;4945302;28;20039;-73
2024/01/05 10:58:29;;;;;;;3.08;2.00;;;6.80;99.90;;;;;;4945135;28;20531;-70
2024/01/05 11:00:58;;;;;;;4.70;2.35;;;6.80;99.90;;;;;;4947093;28;20031;-74
2024/01/05 11:03:25;;;;;;;4.15;2.03;;;6.90;99.90;;;;;;4941014;28;20035;-70
2024/01/05 11:05:51;;;;;;;7.13;2.33;;;6.80;99.90;;;;;;4949585;28;20114;-73
2024/01/05 11:08:51;;;;;;;3.08;1.80;;;6.80;99.90;;;;;;4951751;28;20117;-72
2024/01/05 11:11:35;;;;;;;2.55;1.58;;;6.80;99.90;;;;;;4957461;28;20131;-72
2024/01/05 11:14:30;;;;;;;4.13;1.98;;;6.80;99.90;;;;;;4960757;28;20039;-73
2024/01/05 11:17:20;;;;;;;3.55;2.13;;;6.80;99.90;;;;;;4947582;28;20043;-72
2024/01/05 11:19:52;;;;;;;3.42;1.60;;;6.80;99.90;;;;;;4946408;28;20046;-74
2024/01/05 11:22:27;;;;;;;2.28;1.75;;;6.80;99.90;;;;;;4943752;28;20042;-73
2024/01/05 11:24:55;;;;;;;2.78;2.15;;;6.80;99.90;;;;;;4943116;28;20043;-72
2024/01/05 11:27:34;;;;;;;3.47;2.03;;;6.80;99.90;;;;;;4947294;28;20035;-72
2024/01/05 11:30:02;;;;;;;2.60;1.42;;;6.80;99.90;;;;;;4945206;28;20749;-73
2024/01/05 11:32:38;;;;;;;2.33;1.33;;;6.80;99.90;;;;;;4951112;28;20042;-73
2024/01/05 11:35:23;;;;;;;2.47;1.45;;;6.80;99.90;;;;;;4950155;28;20114;-71
2024/01/05 11:37:50;;;;;;;2.55;1.70;;;6.80;99.90;;;;;;4950471;28;20050;-73
2024/01/05 11:40:32;;;;;;;5.70;1.25;;;6.80;99.90;;;;;;4938415;28;20027;-73
2024/01/05 11:42:59;;;;;;;2.25;1.48;;;6.80;99.90;;;;;;4947816;28;20055;-73
2024/01/05 11:45:43;;;;;;;4.70;1.67;;;6.80;99.90;;;;;;4955595;28;20039;-72
2024/01/05 11:48:09;;;;;;;6.63;2.60;;;6.80;99.90;;;;;;4947234;28;20046;-73
2024/01/05 11:50:37;;;;;;;3.70;1.60;;;6.80;99.90;;;;;;4948759;28;20043;-72
2024/01/05 11:53:15;;;;;;;3.28;1.85;;;6.80;99.90;;;;;;4952225;28;20107;-72
2024/01/05 11:55:48;;;;;;;3.13;1.63;;;6.80;99.90;;;;;;4949276;28;20058;-74
2024/01/05 11:58:17;;;;;;;3.72;1.98;;;6.80;99.90;;;;;;4941756;28;20035;-74
2024/01/05 12:00:44;;;;;;;4.07;1.85;;;6.80;99.90;;;;;;4940898;28;20047;-73
2024/01/05 12:03:10;;;;;;;3.08;1.80;;;6.90;99.90;;;;;;4943469;28;20228;-73
2024/01/05 12:05:38;;;;;;;2.63;1.90;;;6.90;99.90;;;;;;4944723;28;20377;-72
2024/01/05 12:08:05;;;;;;;4.15;1.70;;;6.90;99.90;;;;;;4937979;28;20038;-72
2024/01/05 12:10:31;;;;;;;2.90;1.80;;;6.90;99.90;;;;;;4944500;28;20602;-74
2024/01/05 12:12:57;;;;;;;6.15;1.90;;;6.90;99.90;;;;;;4942861;28;20070;-71
2024/01/05 12:15:23;;;;;;;5.45;2.45;;;7.00;99.90;;;;;;4948823;28;20399;-72
2024/01/05 12:17:49;;;;;;;4.15;2.30;;;7.00;99.90;;;;;;4943957;28;20035;-72
2024/01/05 12:20:16;;;;;;;3.90;2.65;;;7.10;99.90;;;;;;4942859;28;20046;-72
2024/01/05 12:22:44;;;;;;;4.13;2.47;;;7.10;99.90;;;;;;4942605;28;20035;-72
2024/01/05 12:25:10;;;;;;;4.05;2.03;;;7.10;99.90;;;;;;4942272;28;20170;-73
2024/01/05 12:27:39;;;;;;;4.47;2.72;;;7.10;99.90;;;;;;4943544;28;20150;-74
2024/01/05 12:30:10;;;;;;;4.85;2.42;;;7.10;99.90;;;;;;4944426;28;20062;-72
2024/01/05 12:32:36;;;;;;;8.43;3.22;;;7.20;99.90;;;;;;4946559;28;20066;-71
2024/01/05 12:35:04;;;;;;;6.22;3.60;;;7.30;99.90;;;;;;4948847;28;20134;-72
2024/01/05 12:37:29;;;;;;;9.68;4.00;;;7.40;99.90;;;;;;4945062;28;20051;-72
2024/01/05 12:40:10;;;;;;;7.72;3.65;;;7.40;99.90;;;;;;4943752;28;20053;-72
2024/01/05 12:42:37;;;;;;;15.65;4.55;;;7.50;99.90;;;;;;4941146;28;21502;-72
2024/01/05 12:45:08;;;;;;;9.00;4.38;;;7.60;99.90;;;;;;4944338;28;20552;-72
2024/01/05 12:47:34;;;;;;;8.32;4.78;;;7.60;99.90;;;;;;4943934;28;20066;-73
2024/01/05 12:50:03;;;;;;;6.53;3.72;;;7.70;99.90;;;;;;4945379;28;20050;-72
2024/01/05 12:52:36;;;;;;;8.20;3.47;;;7.70;99.90;;;;;;4943356;28;20032;-73
2024/01/05 12:55:03;;;;;;;7.97;3.65;;;7.90;99.90;;;;;;4945172;28;20646;-73